Nearby METAR Reports

 

KFIT - Fitchburg, Massachusetts, USA
Distance from station: E 7mi, 11km
Updated: Thu, 06/29/2017 2:52am
Mostly cloudy
Mostly cloudy
 Wind from calm
Wind: Calm
Temperature: 57°F , 14°C
Dew Point: 54°F , 12°C
Humidity: 88%
Barometer: 30.11 inHg , 1019.6 hPa
Clouds: Mostly cloudy
Visibility: 10 miles , 16 km
Cloud details: Partly cloudy 7000 ft
Mostly cloudy 8500 ft
2017/06/29 06:52 KFIT 290652Z AUTO 00000KT 10SM SCT070 BKN085 14/12 A3011 RMK AO2 SLP196 T01390117
KAFN - Jaffrey, New Hampshire, USA
Distance from station: NNW 18mi, 29km
Updated: Wed, 06/28/2017 2:52pm
NOT Current
Partly cloudy
Partly cloudy
 Wind from W
Wind: W 13 mph , 20 km/h, Gust: 17 mph , 28 km/h
Temperature: 72°F , 22°C
Dew Point: 46°F , 8°C
Humidity: 41%
Barometer: 30.07 inHg , 1018.3 hPa
Clouds: Partly cloudy
Visibility: 10 miles , 16 km
Cloud details: Partly cloudy 7000 ft
2017/06/28 18:52 KAFN 281852Z AUTO 28011G15KT 260V320 10SM SCT070 22/08 A3007 RMK AO2 SLP186 T02220083 TSNO
 
KORH - Worcester, Massachusetts, USA
Distance from station: S 20mi, 32km
Updated: Thu, 06/29/2017 2:54am
Clear
Clear
 Wind from W
Wind: W 9 mph , 15 km/h
Temperature: 57°F , 14°C
Dew Point: 50°F , 10°C
Humidity: 77%
Barometer: 30.12 inHg , 1020 hPa
Clouds: Clear
Visibility: 10 miles , 16 km
2017/06/29 06:54 KORH 290654Z AUTO 26008KT 10SM CLR 14/10 A3012 RMK AO2 SLP198 T01440100
KORE - Orange, Massachusetts, USA
Distance from station: W 20mi, 33km
Updated: Thu, 06/29/2017 2:52am
Clear
Clear
 Wind from calm
Wind: Calm
Temperature: 52°F , 11°C
Dew Point: 52°F , 11°C
Humidity: 100%
Barometer: 30.11 inHg , 1019.6 hPa
Clouds: Clear
Visibility: 10 miles , 16 km
2017/06/29 06:52 KORE 290652Z AUTO 00000KT 10SM CLR 11/11 A3011 RMK AO2 SLP196 T01110111 TSNO
 
KASH - Nashua/Boire Fld, New Hampshire, USA
Distance from station: NE 24mi, 39km
Updated: Thu, 06/29/2017 2:56am
Few Clouds
Few Clouds
 Wind from NW
Wind: NW 3 mph , 6 km/h
Temperature: 57°F , 14°C
Dew Point: 54°F , 12°C
Humidity: 88%
Barometer: 30.10 inHg , 1019.3 hPa
Clouds: Few Clouds
Visibility: 10 miles , 16 km
Cloud details: Few Clouds 7000 ft
2017/06/29 06:56 KASH 290656Z AUTO 31003KT 10SM FEW070 14/12 A3010 RMK AO2 SLP201 T01390117
KEEN - Keene/Dillant, New Hampshire, USA
Distance from station: NW 30mi, 48km
Updated: Thu, 06/29/2017 2:56am
Few Clouds
Few Clouds
 Wind from calm
Wind: Calm
Temperature: 52°F , 11°C
Dew Point: 52°F , 11°C
Humidity: 100%
Barometer: 30.11 inHg , 1019.6 hPa
Clouds: Few Clouds
Visibility: 10 miles , 16 km
Cloud details: Few Clouds 9000 ft
2017/06/29 06:56 KEEN 290656Z AUTO 00000KT 10SM FEW090 11/11 A3011 RMK AO2 SLP215 T01110106 TSNO
 
KBOS - Boston, Massachusetts, USA
Distance from station: ESE 46mi, 74km
Updated: Thu, 06/29/2017 2:54am
Mostly cloudy
Mostly cloudy
 Wind from WSW
Wind: WSW 10 mph , 17 km/h
Temperature: 64°F , 18°C
Dew Point: 55°F , 13°C
Humidity: 73%
Barometer: 30.09 inHg , 1019 hPa
Clouds: Mostly cloudy
Visibility: 10 miles , 16 km
Cloud details: Mostly cloudy 25000 ft
2017/06/29 06:54 KBOS 290654Z 24009KT 10SM BKN250 18/13 A3009 RMK AO2 SLP188 T01830128